createdAt,value
2018-09-11T00:01:20.555Z,67.03
2018-09-11T00:03:49.167Z,66.68
2018-09-11T00:06:18.132Z,67.11
2018-09-11T00:08:46.910Z,66.93
2018-09-11T00:11:16.347Z,66.86
2018-09-11T00:13:45.155Z,66.98
2018-09-11T00:16:14.605Z,67.39
2018-09-11T00:18:43.546Z,66.71
2018-09-11T00:21:13.232Z,67.47
2018-09-11T00:26:10.274Z,67.46
2018-09-11T00:28:38.863Z,67.36
2018-09-11T00:31:07.661Z,67.54
2018-09-11T00:33:36.456Z,68.35
2018-09-11T00:36:05.152Z,67.71
2018-09-11T00:38:33.856Z,67.57
2018-09-11T00:41:02.604Z,67.74
2018-09-11T00:43:31.224Z,67.67
2018-09-11T00:46:00.124Z,68.59
2018-09-11T00:48:29.387Z,68.41
2018-09-11T00:50:58.076Z,68.66
2018-09-11T00:53:26.774Z,69.42
2018-09-11T00:55:55.582Z,69.66
2018-09-11T00:58:24.113Z,69.75
2018-09-11T01:00:52.999Z,70.00
2018-09-11T01:03:21.748Z,70.07
2018-09-11T01:05:50.508Z,69.73
2018-09-11T01:08:19.622Z,69.49
2018-09-11T01:10:48.223Z,69.51
2018-09-11T01:13:17.077Z,69.42
2018-09-11T01:15:45.718Z,69.63
2018-09-11T01:18:14.452Z,69.75
2018-09-11T01:20:43.294Z,69.99
2018-09-11T01:26:02.595Z,70.56
2018-09-11T01:28:31.108Z,70.02
2018-09-11T01:31:01.544Z,70.29
2018-09-11T01:33:30.813Z,70.46
2018-09-11T01:35:59.838Z,70.47
2018-09-11T01:38:28.483Z,70.32
2018-09-11T01:40:58.341Z,70.96
2018-09-11T01:43:27.483Z,71.01
2018-09-11T01:45:56.107Z,71.43
2018-09-11T01:48:25.060Z,71.24
2018-09-11T01:50:53.743Z,71.02
2018-09-11T01:53:22.442Z,70.79
2018-09-11T01:55:51.095Z,70.21
2018-09-11T01:58:19.816Z,71.04
2018-09-11T02:00:48.472Z,70.37
2018-09-11T02:03:17.030Z,70.42
2018-09-11T02:05:45.653Z,70.56
2018-09-11T02:08:14.348Z,70.73
2018-09-11T02:10:42.876Z,71.42
2018-09-11T02:13:12.339Z,71.73
2018-09-11T02:15:41.100Z,70.86
2018-09-11T02:18:09.979Z,70.96
2018-09-11T02:20:39.330Z,71.79
2018-09-11T02:23:08.213Z,71.91
2018-09-11T02:25:36.882Z,71.82
2018-09-11T02:28:05.854Z,72.03
2018-09-11T02:30:34.800Z,72.13
2018-09-11T02:33:04.257Z,72.07
2018-09-11T02:35:33.318Z,72.20
2018-09-11T02:38:02.037Z,71.70
2018-09-11T02:40:30.571Z,71.59
2018-09-11T02:42:59.164Z,71.57
2018-09-11T02:45:27.711Z,72.18
2018-09-11T02:47:56.509Z,71.38
2018-09-11T02:50:25.843Z,72.13
2018-09-11T02:52:54.547Z,72.14
2018-09-11T02:55:23.688Z,72.56
2018-09-11T02:57:52.851Z,71.68
2018-09-11T03:00:21.399Z,72.56
2018-09-11T03:02:50.091Z,72.58
2018-09-11T03:05:18.760Z,72.55
2018-09-11T03:07:47.483Z,72.97
2018-09-11T03:10:16.131Z,72.74
2018-09-11T03:12:45.527Z,72.82
2018-09-11T03:15:14.320Z,73.62
2018-09-11T03:17:43.016Z,73.34
2018-09-11T03:20:11.687Z,73.68
2018-09-11T03:22:40.544Z,73.33
2018-09-11T03:25:09.466Z,73.75
2018-09-11T03:27:38.503Z,73.88
2018-09-11T03:30:08.364Z,73.50
2018-09-11T03:32:37.187Z,73.41
2018-09-11T03:35:06.247Z,73.56
2018-09-11T03:37:35.414Z,73.35
2018-09-11T03:40:04.596Z,73.08
2018-09-11T03:42:33.340Z,72.63
2018-09-11T03:45:02.049Z,72.00
2018-09-11T03:47:30.913Z,71.62
2018-09-11T03:49:59.759Z,71.31
2018-09-11T03:52:28.512Z,71.73
2018-09-11T03:54:57.087Z,71.67
2018-09-11T03:57:26.690Z,71.08
2018-09-11T03:59:55.579Z,70.89
2018-09-11T04:02:25.090Z,69.98
2018-09-11T04:04:54.517Z,70.54
2018-09-11T04:07:23.136Z,71.35
2018-09-11T04:09:51.740Z,71.36
2018-09-11T04:12:20.319Z,71.54
2018-09-11T04:14:48.899Z,71.61
2018-09-11T04:17:17.596Z,71.77
2018-09-11T04:19:46.421Z,72.08
2018-09-11T04:22:15.183Z,72.03
2018-09-11T04:24:43.736Z,72.19
2018-09-11T04:27:12.323Z,72.01
2018-09-11T04:29:41.009Z,71.85
2018-09-11T04:32:09.680Z,71.49
2018-09-11T04:34:39.077Z,71.38
2018-09-11T04:37:07.664Z,70.82
2018-09-11T04:39:36.468Z,70.92
2018-09-11T04:42:05.029Z,69.86
2018-09-11T04:44:34.189Z,70.23
2018-09-11T04:47:02.836Z,69.70
2018-09-11T04:49:31.669Z,69.18
2018-09-11T04:52:00.441Z,69.41
2018-09-11T04:54:29.091Z,70.62
2018-09-11T04:56:57.676Z,70.50
2018-09-11T04:59:26.237Z,70.34
2018-09-11T05:01:55.395Z,69.57
2018-09-11T05:04:24.220Z,69.49
2018-09-11T05:06:53.112Z,70.18
2018-09-11T05:09:21.824Z,69.60
2018-09-11T05:11:50.487Z,69.79
2018-09-11T05:14:19.794Z,69.40
2018-09-11T05:16:48.323Z,69.14
2018-09-11T05:19:16.978Z,69.28
2018-09-11T05:21:45.529Z,69.29
2018-09-11T05:24:14.337Z,69.22
2018-09-11T05:26:43.228Z,68.58
2018-09-11T05:29:13.169Z,67.96
2018-09-11T05:31:42.909Z,68.33
2018-09-11T05:34:12.256Z,68.50
2018-09-11T05:36:41.032Z,68.51
2018-09-11T05:39:10.801Z,67.81
2018-09-11T05:41:39.423Z,68.45
2018-09-11T05:44:08.528Z,68.27
2018-09-11T05:46:37.388Z,68.23
2018-09-11T05:49:06.304Z,68.05
2018-09-11T05:51:36.309Z,68.03
2018-09-11T05:54:04.881Z,68.00
2018-09-11T05:56:33.418Z,68.51
2018-09-11T05:59:02.060Z,69.24
2018-09-11T06:01:31.131Z,69.09
2018-09-11T06:03:59.827Z,69.06
2018-09-11T06:06:28.868Z,68.79
2018-09-11T06:08:58.253Z,68.61
2018-09-11T06:11:26.885Z,67.90
2018-09-11T06:13:55.451Z,68.66
2018-09-11T06:16:24.409Z,68.60
2018-09-11T06:18:52.936Z,68.07
2018-09-11T06:21:21.695Z,68.06
2018-09-11T06:23:50.500Z,68.43
2018-09-11T06:26:19.399Z,68.59
2018-09-11T06:28:48.115Z,67.93
2018-09-11T06:31:17.409Z,67.79
2018-09-11T06:33:46.086Z,66.75
2018-09-11T06:36:14.708Z,66.56
2018-09-11T06:38:43.219Z,66.10
2018-09-11T06:41:12.287Z,65.29
2018-09-11T06:43:41.024Z,65.38
2018-09-11T06:46:09.599Z,64.15
2018-09-11T06:48:38.555Z,64.03
2018-09-11T06:51:07.284Z,61.94
2018-09-11T06:53:35.968Z,61.83
2018-09-11T06:56:04.632Z,61.17
2018-09-11T06:58:33.647Z,60.45
2018-09-11T07:01:02.400Z,59.57
2018-09-11T07:03:31.113Z,58.59
2018-09-11T07:05:59.836Z,59.70
2018-09-11T07:08:28.920Z,58.45
2018-09-11T07:10:57.805Z,57.76
2018-09-11T07:13:26.546Z,56.82
2018-09-11T07:15:55.203Z,56.79
2018-09-11T07:21:26.652Z,55.39
2018-09-11T07:23:55.464Z,54.75
2018-09-11T07:26:24.876Z,55.52
2018-09-11T07:28:53.612Z,54.37
2018-09-11T07:31:22.312Z,52.78
2018-09-11T07:33:51.015Z,52.51
2018-09-11T07:36:20.361Z,51.41
2018-09-11T07:38:48.960Z,50.83
2018-09-11T07:41:17.580Z,49.57
2018-09-11T07:43:46.775Z,49.92
2018-09-11T07:46:15.428Z,50.27
2018-09-11T07:48:44.125Z,49.80
2018-09-11T07:51:13.408Z,49.76
2018-09-11T07:53:41.984Z,49.79
2018-09-11T07:56:10.540Z,48.88
2018-09-11T07:58:39.207Z,49.45
2018-09-11T08:01:07.979Z,49.18
2018-09-11T08:03:36.802Z,49.81
2018-09-11T08:06:05.723Z,49.83
2018-09-11T08:08:34.461Z,49.70
2018-09-11T08:11:03.071Z,48.93
2018-09-11T08:13:31.652Z,47.92
2018-09-11T08:16:00.240Z,48.74
2018-09-11T08:18:29.407Z,47.35
2018-09-11T08:20:58.273Z,48.44
2018-09-11T08:23:26.927Z,48.40
2018-09-11T08:25:55.680Z,48.10
2018-09-11T08:28:24.700Z,48.59
2018-09-11T08:30:54.014Z,47.82
2018-09-11T08:33:22.695Z,47.73
2018-09-11T08:35:51.415Z,47.23
2018-09-11T08:38:20.667Z,47.33
2018-09-11T08:40:49.590Z,46.39
2018-09-11T08:43:18.612Z,46.04
2018-09-11T08:45:47.479Z,46.43
2018-09-11T08:48:16.449Z,46.10
2018-09-11T08:50:45.143Z,45.08
2018-09-11T08:53:13.836Z,45.61
2018-09-11T08:55:42.778Z,45.18
2018-09-11T08:58:11.391Z,44.76
2018-09-11T09:00:40.059Z,44.33
2018-09-11T09:03:08.813Z,44.77
2018-09-11T09:05:37.441Z,43.84
2018-09-11T09:08:06.151Z,43.49
2018-09-11T09:10:35.533Z,43.32
2018-09-11T09:13:05.115Z,43.32
2018-09-11T09:15:33.826Z,43.43
2018-09-11T09:18:02.656Z,44.29
2018-09-11T09:20:31.784Z,42.50
2018-09-11T09:23:01.084Z,42.90
2018-09-11T09:25:29.659Z,42.07
2018-09-11T09:27:59.251Z,42.50
2018-09-11T09:30:28.946Z,41.15
2018-09-11T09:32:58.407Z,40.94
2018-09-11T09:35:27.479Z,40.41
2018-09-11T09:37:56.100Z,40.42
2018-09-11T09:40:24.831Z,40.43
2018-09-11T09:42:54.103Z,39.63
2018-09-11T09:45:22.753Z,39.89
2018-09-11T09:47:51.412Z,38.95
2018-09-11T09:50:27.716Z,38.31
2018-09-11T09:52:56.516Z,37.94
2018-09-11T09:55:25.276Z,37.17
2018-09-11T09:57:54.557Z,36.82
2018-09-11T10:00:28.606Z,35.62
2018-09-11T10:02:57.468Z,35.02
2018-09-11T10:05:26.943Z,35.59
2018-09-11T10:07:55.655Z,35.22
2018-09-11T10:10:24.366Z,36.45
2018-09-11T10:12:52.986Z,35.14
2018-09-11T10:15:21.552Z,34.58
2018-09-11T10:17:50.376Z,35.19
2018-09-11T10:20:19.067Z,32.93
2018-09-11T10:22:47.749Z,32.60
2018-09-11T10:25:17.351Z,32.45
2018-09-11T10:27:46.900Z,32.23
2018-09-11T10:30:15.772Z,32.62
2018-09-11T10:32:44.548Z,31.69
2018-09-11T10:35:16.353Z,31.93
2018-09-11T10:37:45.124Z,30.89
2018-09-11T10:40:14.148Z,31.24
2018-09-11T10:42:42.984Z,31.75
2018-09-11T10:45:13.696Z,31.50
2018-09-11T10:47:42.804Z,33.88
2018-09-11T10:50:11.930Z,32.99
2018-09-11T10:52:42.120Z,33.97
2018-09-11T10:55:12.173Z,33.58
2018-09-11T10:57:41.123Z,34.66
2018-09-11T11:00:10.138Z,35.12
2018-09-11T11:02:38.772Z,34.78
2018-09-11T11:05:07.515Z,36.07
2018-09-11T11:07:36.207Z,34.88
2018-09-11T11:10:05.261Z,35.29
2018-09-11T11:12:34.087Z,35.86
2018-09-11T11:15:02.837Z,35.33
2018-09-11T11:17:31.481Z,37.46
2018-09-11T11:20:00.404Z,37.28
2018-09-11T11:22:29.110Z,37.50
2018-09-11T11:24:58.904Z,35.32
2018-09-11T11:27:27.478Z,35.45
2018-09-11T11:29:56.136Z,36.67
2018-09-11T11:32:25.177Z,37.26
2018-09-11T11:34:54.620Z,37.56
2018-09-11T11:37:23.460Z,37.07
2018-09-11T11:39:51.912Z,36.46
2018-09-11T11:42:21.080Z,37.11
2018-09-11T11:44:50.028Z,36.98
2018-09-11T11:47:20.440Z,37.31
2018-09-11T11:49:50.371Z,36.84
2018-09-11T11:52:19.456Z,37.50
2018-09-11T11:54:48.384Z,37.22
2018-09-11T11:57:17.924Z,37.62
2018-09-11T11:59:47.220Z,37.57
2018-09-11T12:02:16.437Z,37.81
2018-09-11T12:04:46.418Z,38.35
2018-09-11T12:07:16.044Z,37.17
2018-09-11T12:09:44.968Z,38.06
2018-09-11T12:12:13.647Z,39.04
2018-09-11T12:14:43.412Z,37.75
2018-09-11T12:17:13.811Z,37.50
2018-09-11T12:19:42.712Z,36.69
2018-09-11T12:22:11.493Z,37.33
2018-09-11T12:24:40.361Z,36.61
2018-09-11T12:27:09.024Z,38.38
2018-09-11T12:29:37.893Z,38.30
2018-09-11T12:32:06.808Z,39.00
2018-09-11T12:34:35.464Z,38.26
2018-09-11T12:37:04.157Z,36.80
2018-09-11T12:39:32.892Z,37.49
2018-09-11T12:42:01.512Z,36.88
2018-09-11T12:44:30.588Z,37.72
2018-09-11T12:46:59.475Z,37.95
2018-09-11T12:49:28.004Z,38.46
2018-09-11T12:51:56.672Z,38.09
2018-09-11T12:54:25.562Z,38.36
2018-09-11T12:56:54.321Z,37.97
2018-09-11T12:59:23.138Z,38.56
2018-09-11T13:01:52.208Z,38.92
2018-09-11T13:04:21.515Z,38.45
2018-09-11T13:06:50.207Z,37.84
2018-09-11T13:09:18.894Z,38.32
2018-09-11T13:11:47.906Z,38.12
2018-09-11T13:14:16.520Z,38.61
2018-09-11T13:16:45.137Z,37.79
2018-09-11T13:19:15.332Z,37.41
2018-09-11T13:21:45.598Z,37.48
2018-09-11T13:24:14.735Z,37.66
2018-09-11T13:26:43.374Z,37.38
2018-09-11T13:29:13.693Z,38.02
2018-09-11T13:31:42.391Z,37.42
2018-09-11T13:34:11.124Z,38.32
2018-09-11T13:36:39.719Z,37.66
2018-09-11T13:39:09.642Z,37.89
2018-09-11T13:41:38.368Z,38.61
2018-09-11T13:44:07.458Z,37.77
2018-09-11T13:46:36.150Z,38.09
2018-09-11T13:49:04.836Z,37.48
2018-09-11T13:51:33.724Z,37.31
2018-09-11T13:54:02.581Z,37.30
2018-09-11T13:56:31.257Z,36.74
2018-09-11T13:59:00.264Z,37.41
2018-09-11T14:01:28.824Z,37.00
2018-09-11T14:03:57.760Z,36.94
2018-09-11T14:06:26.435Z,36.59
2018-09-11T14:08:56.242Z,37.33
2018-09-11T14:11:24.994Z,35.29
2018-09-11T14:13:53.579Z,36.07
2018-09-11T14:16:24.083Z,36.56
2018-09-11T14:18:52.894Z,36.30
2018-09-11T14:21:21.539Z,36.31
2018-09-11T14:23:51.120Z,36.41
2018-09-11T14:26:19.673Z,36.61
2018-09-11T14:28:48.737Z,37.09
2018-09-11T14:31:17.328Z,36.46
2018-09-11T14:33:46.191Z,37.12
2018-09-11T14:36:15.746Z,36.27
2018-09-11T14:38:44.509Z,37.16
2018-09-11T14:41:14.610Z,36.35
2018-09-11T14:43:43.388Z,36.63
2018-09-11T14:46:12.151Z,36.11
2018-09-11T14:48:40.820Z,36.61
2018-09-11T14:51:09.553Z,35.82
2018-09-11T14:53:38.197Z,35.95
2018-09-11T14:56:07.093Z,36.24
2018-09-11T14:58:35.748Z,35.24
2018-09-11T15:01:04.407Z,35.07
2018-09-11T15:03:33.143Z,35.65
2018-09-11T15:06:02.683Z,35.91
2018-09-11T15:08:31.305Z,36.06
2018-09-11T15:11:00.003Z,35.95
2018-09-11T15:13:28.891Z,36.40
2018-09-11T15:15:57.771Z,35.85
2018-09-11T15:18:26.385Z,36.12
2018-09-11T15:20:55.128Z,36.18
2018-09-11T15:23:23.886Z,35.96
2018-09-11T15:25:52.536Z,36.88
2018-09-11T15:28:22.260Z,36.47
2018-09-11T15:30:52.122Z,36.97
2018-09-11T15:33:21.072Z,36.70
2018-09-11T15:35:49.732Z,36.83
2018-09-11T15:38:18.406Z,36.72
2018-09-11T15:40:47.088Z,36.99
2018-09-11T15:43:15.928Z,36.99
2018-09-11T15:45:44.723Z,38.01
2018-09-11T15:48:13.697Z,36.75
2018-09-11T15:50:42.277Z,36.83
2018-09-11T15:53:12.087Z,37.01
2018-09-11T15:55:41.344Z,37.52
2018-09-11T15:58:10.467Z,38.66
2018-09-11T16:00:39.072Z,38.63
2018-09-11T16:03:07.716Z,38.58
2018-09-11T16:05:36.643Z,39.16
2018-09-11T16:08:05.422Z,39.37
2018-09-11T16:10:34.073Z,39.67
2018-09-11T16:13:02.823Z,39.77
2018-09-11T16:15:31.599Z,40.07
2018-09-11T16:21:04.016Z,41.08
2018-09-11T16:23:32.950Z,41.98
2018-09-11T16:26:01.715Z,42.68
2018-09-11T16:28:30.832Z,43.62
2018-09-11T16:30:59.681Z,44.56
2018-09-11T16:33:28.248Z,44.39
2018-09-11T16:35:57.228Z,45.61
2018-09-11T16:38:26.103Z,46.28
2018-09-11T16:40:55.154Z,46.78
2018-09-11T16:43:23.957Z,47.24
2018-09-11T16:45:52.508Z,47.69
2018-09-11T16:48:21.323Z,48.04
2018-09-11T16:50:50.168Z,48.03
2018-09-11T16:53:19.128Z,48.10
2018-09-11T16:55:47.975Z,48.75
2018-09-11T16:58:17.448Z,49.53
2018-09-11T17:00:46.414Z,49.97
2018-09-11T17:03:15.497Z,50.71
2018-09-11T17:05:44.163Z,50.79
2018-09-11T17:08:12.956Z,50.81
2018-09-11T17:10:42.302Z,50.86
2018-09-11T17:13:11.787Z,51.03
2018-09-11T17:15:40.540Z,51.59
2018-09-11T17:18:09.405Z,50.64
2018-09-11T17:20:38.823Z,51.46
2018-09-11T17:23:07.411Z,52.20
2018-09-11T17:25:36.021Z,53.46
2018-09-11T17:28:04.585Z,52.65
2018-09-11T17:30:33.888Z,52.90
2018-09-11T17:33:02.808Z,52.65
2018-09-11T17:35:32.013Z,53.47
2018-09-11T17:38:00.911Z,53.37
2018-09-11T17:40:29.844Z,53.97
2018-09-11T17:42:58.538Z,53.87
2018-09-11T17:45:27.253Z,54.00
2018-09-11T17:47:56.345Z,54.66
2018-09-11T17:50:25.221Z,54.78
2018-09-11T17:52:53.877Z,54.96
2018-09-11T17:55:22.687Z,55.10
2018-09-11T17:57:51.407Z,54.97
2018-09-11T18:00:20.143Z,55.14
2018-09-11T18:02:50.005Z,55.96
2018-09-11T18:05:18.791Z,56.32
2018-09-11T18:07:47.569Z,56.65
2018-09-11T18:10:16.605Z,56.22
2018-09-11T18:12:45.500Z,57.15
2018-09-11T18:15:14.502Z,56.96
2018-09-11T18:17:43.189Z,57.74
2018-09-11T18:20:12.350Z,57.01
2018-09-11T18:22:40.951Z,56.73
2018-09-11T18:25:10.696Z,56.68
2018-09-11T18:27:39.401Z,57.18
2018-09-11T18:30:08.205Z,56.87
2018-09-11T18:32:37.004Z,56.95
2018-09-11T18:35:06.080Z,56.55
2018-09-11T18:37:34.909Z,58.33
2018-09-11T18:40:03.831Z,58.80
2018-09-11T18:42:32.445Z,59.31
2018-09-11T18:45:01.744Z,59.12
2018-09-11T18:47:30.351Z,58.92
2018-09-11T18:49:58.984Z,58.85
2018-09-11T18:52:27.608Z,59.52
2018-09-11T18:54:56.307Z,59.45
2018-09-11T18:57:25.150Z,59.75
2018-09-11T18:59:53.992Z,59.32
2018-09-11T19:02:22.654Z,60.66
2018-09-11T19:04:52.601Z,60.63
2018-09-11T19:07:21.771Z,60.79
2018-09-11T19:09:50.479Z,60.93
2018-09-11T19:12:19.086Z,59.90
2018-09-11T19:14:48.868Z,60.50
2018-09-11T19:17:17.671Z,59.79
2018-09-11T19:19:46.227Z,59.69
2018-09-11T19:22:14.913Z,59.76
2018-09-11T19:24:44.020Z,60.25
2018-09-11T19:27:12.931Z,60.43
2018-09-11T19:29:41.693Z,60.44
2018-09-11T19:32:10.284Z,60.15
2018-09-11T19:34:38.960Z,61.07
2018-09-11T19:37:07.686Z,60.65
2018-09-11T19:39:36.245Z,61.54
2018-09-11T19:42:04.984Z,61.24
2018-09-11T19:44:33.887Z,61.38
2018-09-11T19:47:03.243Z,61.31
2018-09-11T19:49:32.740Z,61.52
2018-09-11T19:52:02.265Z,62.10
2018-09-11T19:54:30.891Z,62.17
2018-09-11T19:56:59.589Z,62.23
2018-09-11T19:59:28.668Z,62.49
2018-09-11T20:01:58.048Z,63.15
2018-09-11T20:04:26.679Z,63.01
2018-09-11T20:06:55.224Z,62.81
2018-09-11T20:09:23.988Z,63.49
2018-09-11T20:11:52.701Z,63.06
2018-09-11T20:14:21.371Z,63.36
2018-09-11T20:16:50.272Z,62.89
2018-09-11T20:19:18.837Z,62.89
2018-09-11T20:21:47.438Z,62.65
2018-09-11T20:24:16.125Z,63.06
2018-09-11T20:26:44.799Z,62.95
2018-09-11T20:29:13.985Z,63.58
2018-09-11T20:31:43.518Z,62.88
2018-09-11T20:34:12.387Z,63.56
2018-09-11T20:36:41.034Z,63.76
2018-09-11T20:39:11.417Z,63.78
2018-09-11T20:41:40.472Z,64.16
2018-09-11T20:44:09.692Z,64.12
2018-09-11T20:46:38.508Z,64.47
2018-09-11T20:49:07.052Z,64.58
2018-09-11T20:51:35.575Z,64.44
2018-09-11T20:54:10.684Z,65.19
2018-09-11T20:56:39.463Z,65.11
2018-09-11T20:59:08.138Z,65.08
2018-09-11T21:01:36.834Z,64.43
2018-09-11T21:04:05.540Z,64.32
2018-09-11T21:06:34.240Z,64.91
2018-09-11T21:09:04.764Z,65.30
2018-09-11T21:11:33.424Z,66.10
2018-09-11T21:14:02.091Z,65.86
2018-09-11T21:16:30.768Z,65.84
2018-09-11T21:18:59.367Z,65.95
2018-09-11T21:21:28.363Z,66.16
2018-09-11T21:23:57.481Z,65.79
2018-09-11T21:26:26.297Z,65.76
2018-09-11T21:31:46.086Z,66.45
2018-09-11T21:34:14.927Z,66.58
2018-09-11T21:36:43.615Z,66.42
2018-09-11T21:39:13.160Z,66.33
2018-09-11T21:41:41.804Z,66.29
2018-09-11T21:44:11.781Z,66.34
2018-09-11T21:46:41.407Z,66.13
2018-09-11T21:49:10.054Z,66.65
2018-09-11T21:51:39.011Z,66.79
2018-09-11T21:54:17.390Z,67.28
2018-09-11T21:56:45.975Z,67.26
2018-09-11T21:59:14.916Z,66.87
2018-09-11T22:01:45.327Z,66.83
2018-09-11T22:04:14.197Z,67.01
2018-09-11T22:06:42.812Z,67.31
2018-09-11T22:09:13.142Z,67.50
2018-09-11T22:11:42.007Z,67.12
2018-09-11T22:14:11.228Z,67.97
2018-09-11T22:16:40.688Z,67.15
2018-09-11T22:22:12.615Z,66.71
2018-09-11T22:24:41.233Z,66.17
2018-09-11T22:27:10.767Z,66.87
2018-09-11T22:29:39.588Z,66.50
2018-09-11T22:32:08.816Z,67.35
2018-09-11T22:34:37.671Z,66.77
2018-09-11T22:37:09.344Z,66.79
2018-09-11T22:39:38.150Z,66.77
2018-09-11T22:42:06.756Z,66.86
2018-09-11T22:44:35.551Z,67.05
2018-09-11T22:47:04.212Z,66.81
2018-09-11T22:49:32.836Z,67.17
2018-09-11T22:52:01.364Z,67.33
2018-09-11T22:54:29.916Z,66.98
2018-09-11T22:56:59.235Z,66.88
2018-09-11T22:59:27.999Z,66.95
2018-09-11T23:01:56.652Z,66.74
2018-09-11T23:04:25.643Z,66.88
2018-09-11T23:06:54.235Z,67.40
2018-09-11T23:09:23.513Z,67.46
2018-09-11T23:11:52.404Z,67.64
2018-09-11T23:14:21.212Z,67.53
2018-09-11T23:16:50.438Z,67.48
2018-09-11T23:19:19.900Z,68.00
2018-09-11T23:21:49.151Z,67.70
2018-09-11T23:24:17.759Z,67.70
2018-09-11T23:26:46.385Z,67.71
2018-09-11T23:29:15.074Z,67.96
2018-09-11T23:31:43.806Z,67.44
2018-09-11T23:34:12.616Z,67.89
2018-09-11T23:36:41.540Z,68.13
2018-09-11T23:39:10.499Z,68.23
2018-09-11T23:41:39.387Z,68.19
2018-09-11T23:44:09.316Z,68.13
2018-09-11T23:46:37.916Z,68.87
2018-09-11T23:49:06.703Z,69.03
2018-09-11T23:51:35.374Z,68.70
2018-09-11T23:54:03.931Z,68.98
2018-09-11T23:56:33.488Z,69.16
2018-09-11T23:59:02.140Z,68.71
